Time;durP1;ratioP1;P1;durP2;ratioP2;P2;SDS_P1;SDS_P2;PMS_P1;PMS_P2;Temp;Humidity;BMP_temperature;BMP_pressure;BME280_temperature;BME280_humidity;BME280_pressure;Samples;Min_cycle;Max_cycle;Signal;HPM_P1;HPM_P2
2021/11/08 00:01:54;;;;;;;12.60;1.73;;;;;;;;;;5049148;28;20045;-59
2021/11/08 00:04:21;;;;;;;9.05;1.65;;;;;;;;;;5064637;28;20060;-59
2021/11/08 00:06:50;;;;;;;9.35;1.50;;;;;;;;;;5071198;28;20051;-58
2021/11/08 00:09:16;;;;;;;11.07;1.80;;;;;;;;;;5066541;28;20100;-57
2021/11/08 00:11:44;;;;;;;6.15;1.40;;;;;;;;;;5067719;28;20059;-58
2021/11/08 00:14:13;;;;;;;9.75;2.13;;;;;;;;;;5070523;28;20056;-58
2021/11/08 00:16:44;;;;;;;9.38;1.63;;;;;;;;;;5065504;28;20144;-59
2021/11/08 00:19:29;;;;;;;10.13;1.83;;;;;;;;;;5070253;28;20052;-60
2021/11/08 00:21:59;;;;;;;5.47;1.48;;;;;;;;;;5065187;28;20051;-59
2021/11/08 00:24:27;;;;;;;11.23;1.80;;;;;;;;;;5069705;28;20109;-59
2021/11/08 00:26:54;;;;;;;12.27;1.90;;;;;;;;;;5065979;28;20074;-58
2021/11/08 00:29:20;;;;;;;9.55;1.60;;;;;;;;;;5069043;28;20044;-58
2021/11/08 00:31:48;;;;;;;7.05;1.33;;;;;;;;;;5085545;28;20060;-59
2021/11/08 00:34:16;;;;;;;12.93;1.65;;;;;;;;;;5086966;28;20044;-58
2021/11/08 00:36:42;;;;;;;8.20;1.47;;;;;;;;;;5071411;28;20036;-58
2021/11/08 00:39:09;;;;;;;15.10;1.80;;;;;;;;;;5066571;28;20281;-59
2021/11/08 00:41:36;;;;;;;7.35;1.45;;;;;;;;;;5087672;28;20048;-59
2021/11/08 00:44:04;;;;;;;8.13;1.63;;;;;;;;;;5065637;28;20032;-57
2021/11/08 00:46:31;;;;;;;11.00;1.80;;;;;;;;;;5068334;28;20048;-58
2021/11/08 00:48:57;;;;;;;15.98;2.78;;;;;;;;;;5063159;28;20273;-58
2021/11/08 00:51:25;;;;;;;22.08;3.60;;;;;;;;;;5049576;28;20072;-57
2021/11/08 00:53:52;;;;;;;13.10;2.30;;;;;;;;;;5057607;28;20043;-57
2021/11/08 00:56:20;;;;;;;9.55;1.60;;;;;;;;;;5071198;28;20028;-57
2021/11/08 00:58:48;;;;;;;13.60;1.33;;;;;;;;;;5065036;28;20113;-58
2021/11/08 01:01:19;;;;;;;11.80;1.75;;;;;;;;;;5070647;28;20072;-58
2021/11/08 01:03:46;;;;;;;11.63;1.45;;;;;;;;;;5059213;28;20037;-58
2021/11/08 01:06:13;;;;;;;10.40;1.90;;;;;;;;;;5063455;28;20175;-57
2021/11/08 01:08:41;;;;;;;12.50;1.77;;;;;;;;;;5057360;28;20041;-58
2021/11/08 01:11:08;;;;;;;6.25;1.58;;;;;;;;;;5045527;28;20038;-58
2021/11/08 01:13:35;;;;;;;8.20;1.23;;;;;;;;;;5059665;28;20048;-59
2021/11/08 01:16:02;;;;;;;9.38;1.55;;;;;;;;;;5052574;28;20041;-58
2021/11/08 01:18:29;;;;;;;18.20;1.55;;;;;;;;;;5045847;28;20040;-58
2021/11/08 01:20:55;;;;;;;9.30;1.40;;;;;;;;;;5055095;28;20055;-58
2021/11/08 01:23:24;;;;;;;12.80;1.50;;;;;;;;;;5060922;28;20067;-58
2021/11/08 01:25:58;;;;;;;6.07;1.23;;;;;;;;;;5057669;28;20049;-58
2021/11/08 01:28:31;;;;;;;9.00;1.20;;;;;;;;;;5061608;28;20052;-58
2021/11/08 01:30:58;;;;;;;7.93;1.08;;;;;;;;;;5058815;28;20040;-57
2021/11/08 01:33:26;;;;;;;4.18;0.90;;;;;;;;;;5062032;28;20085;-58
2021/11/08 01:36:09;;;;;;;5.13;1.13;;;;;;;;;;5055796;28;20107;-58
2021/11/08 01:38:39;;;;;;;5.25;1.15;;;;;;;;;;5041912;28;20055;-58
2021/11/08 01:41:07;;;;;;;4.93;1.20;;;;;;;;;;5054946;28;20041;-58
2021/11/08 01:43:34;;;;;;;7.13;1.20;;;;;;;;;;5079579;28;20060;-58
2021/11/08 01:46:00;;;;;;;7.78;1.70;;;;;;;;;;5059157;28;20040;-57
2021/11/08 01:48:28;;;;;;;8.80;1.23;;;;;;;;;;5063259;28;20051;-58
2021/11/08 01:50:54;;;;;;;6.82;1.50;;;;;;;;;;5041375;28;20036;-59
2021/11/08 01:53:23;;;;;;;8.88;1.63;;;;;;;;;;5062586;28;20045;-58
2021/11/08 01:55:50;;;;;;;7.20;1.13;;;;;;;;;;5058626;28;20128;-58
2021/11/08 01:58:18;;;;;;;8.05;1.38;;;;;;;;;;5062028;28;20146;-57
2021/11/08 02:00:44;;;;;;;11.88;1.50;;;;;;;;;;5058896;28;20053;-59
2021/11/08 02:03:11;;;;;;;6.10;1.23;;;;;;;;;;5062152;28;20049;-53
2021/11/08 02:05:37;;;;;;;7.50;1.30;;;;;;;;;;5060652;28;20088;-58
2021/11/08 02:08:04;;;;;;;4.00;1.38;;;;;;;;;;5061294;28;20033;-52
2021/11/08 02:10:32;;;;;;;9.55;1.30;;;;;;;;;;5059545;28;20052;-59
2021/11/08 02:13:02;;;;;;;9.45;1.30;;;;;;;;;;5061330;28;20045;-57
2021/11/08 02:15:30;;;;;;;6.43;1.30;;;;;;;;;;5061653;28;20037;-57
2021/11/08 02:17:56;;;;;;;6.73;1.73;;;;;;;;;;5061399;28;20092;-58
2021/11/08 02:20:26;;;;;;;5.25;1.13;;;;;;;;;;5062543;28;20377;-57
2021/11/08 02:22:56;;;;;;;6.25;1.20;;;;;;;;;;5056689;28;20033;-58
2021/11/08 02:25:23;;;;;;;3.55;1.20;;;;;;;;;;5063488;28;20085;-58
2021/11/08 02:27:50;;;;;;;7.28;1.33;;;;;;;;;;5057983;28;20032;-58
2021/11/08 02:30:17;;;;;;;8.18;1.40;;;;;;;;;;5063072;28;20175;-58
2021/11/08 02:32:44;;;;;;;10.20;1.33;;;;;;;;;;5058836;28;20045;-59
2021/11/08 02:35:12;;;;;;;7.43;1.27;;;;;;;;;;5064382;28;20052;-58
2021/11/08 02:37:40;;;;;;;7.43;1.50;;;;;;;;;;5062301;28;20029;-58
2021/11/08 02:40:07;;;;;;;6.35;1.10;;;;;;;;;;5061992;28;20040;-58
2021/11/08 02:42:35;;;;;;;9.13;1.33;;;;;;;;;;5058662;28;20045;-58
2021/11/08 02:45:06;;;;;;;8.55;1.40;;;;;;;;;;5062327;28;20044;-58
2021/11/08 02:47:33;;;;;;;4.40;1.65;;;;;;;;;;5059223;28;20053;-57
2021/11/08 02:50:01;;;;;;;8.20;1.27;;;;;;;;;;5062205;28;20073;-57
2021/11/08 02:52:30;;;;;;;6.38;1.33;;;;;;;;;;5057318;28;20053;-57
2021/11/08 02:55:00;;;;;;;9.68;1.45;;;;;;;;;;5061421;28;20040;-57
2021/11/08 02:57:28;;;;;;;4.97;1.08;;;;;;;;;;5056554;28;20053;-57
2021/11/08 02:59:57;;;;;;;10.07;1.60;;;;;;;;;;5060236;28;20089;-58
2021/11/08 03:02:23;;;;;;;8.32;1.40;;;;;;;;;;5059747;28;20065;-57
2021/11/08 03:04:53;;;;;;;8.45;1.60;;;;;;;;;;5057785;28;20044;-59
2021/11/08 03:07:20;;;;;;;6.50;1.25;;;;;;;;;;5060145;28;20053;-58
2021/11/08 03:09:50;;;;;;;8.02;1.20;;;;;;;;;;5056999;28;20044;-58
2021/11/08 03:12:22;;;;;;;5.15;1.50;;;;;;;;;;5057700;28;20061;-58
2021/11/08 03:14:58;;;;;;;9.50;1.30;;;;;;;;;;5052784;28;20114;-58
2021/11/08 03:17:29;;;;;;;5.05;1.20;;;;;;;;;;5061432;28;20037;-58
2021/11/08 03:19:56;;;;;;;7.00;1.30;;;;;;;;;;5059029;28;20056;-58
2021/11/08 03:22:30;;;;;;;7.43;1.33;;;;;;;;;;5061638;28;20043;-58
2021/11/08 03:24:59;;;;;;;7.50;1.40;;;;;;;;;;5057436;28;20037;-58
2021/11/08 03:27:29;;;;;;;7.47;1.35;;;;;;;;;;5060163;28;20029;-58
2021/11/08 03:29:56;;;;;;;5.82;1.58;;;;;;;;;;5067080;28;20041;-58
2021/11/08 03:32:24;;;;;;;9.02;1.65;;;;;;;;;;5061124;28;20037;-57
2021/11/08 03:34:56;;;;;;;8.73;1.50;;;;;;;;;;5057732;28;20075;-59
2021/11/08 03:37:23;;;;;;;8.90;1.38;;;;;;;;;;5060515;28;20266;-58
2021/11/08 03:39:51;;;;;;;6.70;1.73;;;;;;;;;;5054736;28;20048;-52
2021/11/08 03:42:20;;;;;;;14.73;1.95;;;;;;;;;;5040937;28;20111;-58
2021/11/08 03:44:49;;;;;;;10.05;1.90;;;;;;;;;;5042901;28;20036;-59
2021/11/08 03:47:15;;;;;;;12.68;1.90;;;;;;;;;;5077853;28;20078;-59
2021/11/08 03:49:42;;;;;;;9.68;1.60;;;;;;;;;;5056515;28;20053;-58
2021/11/08 03:52:09;;;;;;;9.93;2.22;;;;;;;;;;5060825;28;20041;-58
2021/11/08 03:54:35;;;;;;;7.07;1.83;;;;;;;;;;5059313;28;20041;-57
2021/11/08 03:57:02;;;;;;;10.65;1.90;;;;;;;;;;5060613;28;20041;-58
2021/11/08 03:59:28;;;;;;;10.98;1.83;;;;;;;;;;5062620;28;20037;-59
2021/11/08 04:01:58;;;;;;;12.60;1.90;;;;;;;;;;5059286;28;20061;-58
2021/11/08 04:04:25;;;;;;;7.88;1.70;;;;;;;;;;5065365;28;20037;-54
2021/11/08 04:06:52;;;;;;;7.72;1.77;;;;;;;;;;5062067;28;20032;-58
2021/11/08 04:09:19;;;;;;;8.00;1.80;;;;;;;;;;5063860;28;20147;-59
2021/11/08 04:11:47;;;;;;;9.10;1.97;;;;;;;;;;5060847;28;20128;-57
2021/11/08 04:14:15;;;;;;;9.35;1.90;;;;;;;;;;5062858;28;20036;-59
2021/11/08 04:16:43;;;;;;;12.55;2.10;;;;;;;;;;5061008;28;20041;-59
2021/11/08 04:19:13;;;;;;;10.53;2.27;;;;;;;;;;5082012;28;20068;-56
2021/11/08 04:21:40;;;;;;;8.02;1.85;;;;;;;;;;5060393;28;20040;-58
2021/11/08 04:24:07;;;;;;;10.02;2.13;;;;;;;;;;5062674;28;20040;-58
2021/11/08 04:26:35;;;;;;;8.55;2.30;;;;;;;;;;5077866;28;20040;-54
2021/11/08 04:29:03;;;;;;;8.85;2.03;;;;;;;;;;5083079;28;20033;-58
2021/11/08 04:31:33;;;;;;;13.98;2.15;;;;;;;;;;5060525;28;20044;-58
2021/11/08 04:34:03;;;;;;;10.43;2.40;;;;;;;;;;5063250;28;20077;-58
2021/11/08 04:39:18;;;;;;;14.63;2.53;;;;;;;;;;5044599;28;20040;-57
2021/11/08 04:41:51;;;;;;;15.32;2.20;;;;;;;;;;5061641;28;20072;-56
2021/11/08 04:47:24;;;;;;;8.20;1.83;;;;;;;;;;5057241;28;20033;-58
2021/11/08 04:49:56;;;;;;;11.05;2.30;;;;;;;;;;5062610;28;20028;-58
2021/11/08 04:52:39;;;;;;;9.15;2.05;;;;;;;;;;5058847;28;20047;-57
2021/11/08 04:55:11;;;;;;;6.68;1.83;;;;;;;;;;5063820;28;20036;-58
2021/11/08 04:58:17;;;;;;;6.70;1.85;;;;;;;;;;5044825;28;20033;-58
2021/11/08 05:25:31;;;;;;;9.65;1.75;;;;;;;;;;5023342;28;20052;-58
2021/11/08 05:28:19;;;;;;;16.98;2.40;;;;;;;;;;5065339;28;20045;-58
2021/11/08 05:30:45;;;;;;;11.68;1.80;;;;;;;;;;5027547;28;20033;-58
2021/11/08 05:33:12;;;;;;;11.30;1.83;;;;;;;;;;5043810;28;20056;-58
2021/11/08 05:35:38;;;;;;;6.50;1.95;;;;;;;;;;5042352;28;20036;-58
2021/11/08 05:38:09;;;;;;;9.70;2.05;;;;;;;;;;5046002;28;20037;-54
2021/11/08 05:40:37;;;;;;;7.82;1.90;;;;;;;;;;5037969;28;20065;-59
2021/11/08 05:43:06;;;;;;;7.47;2.28;;;;;;;;;;5042610;28;20084;-58
2021/11/08 05:45:34;;;;;;;9.55;1.95;;;;;;;;;;5046160;28;20116;-58
2021/11/08 05:48:01;;;;;;;5.38;1.77;;;;;;;;;;5041939;28;20049;-58
2021/11/08 05:50:29;;;;;;;18.95;2.30;;;;;;;;;;5051485;28;20041;-59
2021/11/08 05:52:59;;;;;;;6.60;1.87;;;;;;;;;;5063539;28;20041;-58
2021/11/08 05:55:31;;;;;;;6.63;2.10;;;;;;;;;;5058860;28;20048;-59
2021/11/08 05:58:09;;;;;;;15.35;1.85;;;;;;;;;;5060794;28;20113;-59
2021/11/08 06:49:50;;;;;;;12.35;2.45;;;;;;;;;;5043376;28;20049;-58
2021/11/08 06:52:18;;;;;;;13.52;2.80;;;;;;;;;;5033194;28;20051;-57
2021/11/08 06:54:46;;;;;;;12.07;2.83;;;;;;;;;;5044419;28;20033;-56
2021/11/08 06:57:13;;;;;;;17.95;6.05;;;;;;;;;;5040807;28;20055;-57
2021/11/08 06:59:40;;;;;;;12.20;5.00;;;;;;;;;;5045045;28;20029;-57
2021/11/08 07:02:08;;;;;;;16.42;3.85;;;;;;;;;;5040309;28;20048;-58
2021/11/08 07:04:35;;;;;;;17.57;3.93;;;;;;;;;;5054084;28;20048;-58
2021/11/08 07:07:01;;;;;;;18.17;2.95;;;;;;;;;;5063540;28;20136;-58
2021/11/08 07:09:27;;;;;;;13.40;2.38;;;;;;;;;;5040840;28;20046;-57
2021/11/08 07:11:55;;;;;;;10.43;2.72;;;;;;;;;;5045347;28;20044;-58
2021/11/08 07:14:21;;;;;;;11.77;2.55;;;;;;;;;;5058835;28;20481;-57
2021/11/08 07:16:48;;;;;;;13.23;2.97;;;;;;;;;;5044399;28;20130;-58
2021/11/08 07:19:16;;;;;;;8.60;2.50;;;;;;;;;;5041737;28;20116;-57
2021/11/08 07:21:43;;;;;;;13.35;2.63;;;;;;;;;;5043898;28;20041;-57
2021/11/08 07:24:10;;;;;;;16.10;2.90;;;;;;;;;;5058305;28;20044;-58
2021/11/08 07:26:37;;;;;;;11.77;2.70;;;;;;;;;;5049125;28;20048;-58
2021/11/08 07:29:07;;;;;;;16.13;2.38;;;;;;;;;;5038947;28;20477;-58
2021/11/08 07:31:36;;;;;;;12.88;3.10;;;;;;;;;;5043880;28;20051;-58
2021/11/08 07:34:03;;;;;;;7.25;2.33;;;;;;;;;;5048128;28;20059;-59
2021/11/08 07:36:31;;;;;;;9.65;3.10;;;;;;;;;;5064858;28;20036;-58
2021/11/08 07:38:57;;;;;;;13.00;2.88;;;;;;;;;;5062408;28;20051;-58
2021/11/08 07:41:28;;;;;;;17.92;3.28;;;;;;;;;;5064894;28;20044;-56
2021/11/08 07:43:54;;;;;;;16.02;2.72;;;;;;;;;;5060726;28;21129;-58
2021/11/08 07:46:21;;;;;;;11.82;2.53;;;;;;;;;;5064051;28;20040;-58
2021/11/08 07:48:48;;;;;;;10.00;2.92;;;;;;;;;;5062017;28;20437;-58
2021/11/08 07:51:15;;;;;;;11.48;2.90;;;;;;;;;;5065443;28;20040;-57
2021/11/08 07:53:43;;;;;;;11.82;2.60;;;;;;;;;;5062399;28;20052;-57
2021/11/08 07:56:10;;;;;;;15.20;2.58;;;;;;;;;;5061047;28;20037;-58
2021/11/08 07:58:37;;;;;;;11.65;2.30;;;;;;;;;;5063780;28;20043;-58
2021/11/08 08:01:04;;;;;;;12.68;2.65;;;;;;;;;;5061103;28;20133;-58
2021/11/08 08:03:31;;;;;;;12.00;3.17;;;;;;;;;;5063260;28;20047;-58
2021/11/08 08:05:59;;;;;;;23.23;3.58;;;;;;;;;;5060094;28;20055;-55
2021/11/08 08:08:26;;;;;;;10.27;3.17;;;;;;;;;;5064233;28;20046;-57
2021/11/08 08:10:54;;;;;;;12.65;3.40;;;;;;;;;;5057562;28;20052;-58
2021/11/08 08:13:28;;;;;;;10.50;3.08;;;;;;;;;;5064628;28;20036;-56
2021/11/08 08:15:58;;;;;;;11.05;2.53;;;;;;;;;;5064042;28;20055;-58
2021/11/08 08:18:25;;;;;;;11.95;2.50;;;;;;;;;;5068325;28;20072;-58
2021/11/08 08:20:51;;;;;;;8.55;2.60;;;;;;;;;;5062977;28;20033;-58
2021/11/08 08:23:18;;;;;;;19.65;2.83;;;;;;;;;;5056624;28;20040;-58
2021/11/08 08:25:45;;;;;;;12.30;2.58;;;;;;;;;;5063139;28;20036;-58
2021/11/08 08:28:13;;;;;;;11.23;2.53;;;;;;;;;;5066432;28;20078;-57
2021/11/08 08:30:39;;;;;;;11.07;2.73;;;;;;;;;;5061851;28;20047;-58
2021/11/08 08:33:06;;;;;;;11.93;2.47;;;;;;;;;;5067340;28;20044;-58
2021/11/08 08:35:39;;;;;;;10.98;2.60;;;;;;;;;;5063481;28;20054;-59
2021/11/08 08:38:06;;;;;;;13.00;2.83;;;;;;;;;;5047350;28;20045;-58
2021/11/08 08:40:32;;;;;;;16.48;2.40;;;;;;;;;;5046901;28;20041;-58
2021/11/08 08:43:00;;;;;;;20.52;3.10;;;;;;;;;;5063492;28;20098;-57
2021/11/08 08:45:28;;;;;;;15.52;2.55;;;;;;;;;;5063415;28;20047;-58
2021/11/08 08:47:54;;;;;;;9.13;2.40;;;;;;;;;;5058215;28;20102;-58
2021/11/08 08:50:21;;;;;;;13.27;3.00;;;;;;;;;;5045179;28;20072;-58
2021/11/08 08:52:48;;;;;;;13.00;2.33;;;;;;;;;;5076489;28;20082;-58
2021/11/08 08:55:14;;;;;;;24.77;2.85;;;;;;;;;;5064713;28;20565;-59
2021/11/08 08:57:41;;;;;;;13.35;3.10;;;;;;;;;;5061044;28;20044;-58
2021/11/08 09:00:09;;;;;;;15.52;2.33;;;;;;;;;;5064793;28;20051;-58
2021/11/08 09:02:37;;;;;;;8.75;2.38;;;;;;;;;;5056567;28;20041;-58
2021/11/08 09:05:04;;;;;;;14.05;2.40;;;;;;;;;;5042278;28;20072;-58
2021/11/08 09:07:30;;;;;;;7.93;2.30;;;;;;;;;;5050899;28;20106;-59
2021/11/08 09:09:57;;;;;;;12.25;2.63;;;;;;;;;;5062295;28;20045;-58
2021/11/08 09:12:25;;;;;;;30.33;3.40;;;;;;;;;;5060419;28;20059;-58
2021/11/08 09:14:51;;;;;;;23.63;2.58;;;;;;;;;;5064291;28;20053;-58
2021/11/08 09:17:18;;;;;;;18.77;2.80;;;;;;;;;;5060924;28;20041;-58
2021/11/08 09:19:46;;;;;;;6.78;2.15;;;;;;;;;;5061639;28;20052;-58
2021/11/08 09:22:15;;;;;;;9.32;2.13;;;;;;;;;;5062118;28;20047;-58
2021/11/08 09:24:42;;;;;;;8.80;2.50;;;;;;;;;;5060459;28;20041;-58
2021/11/08 09:27:09;;;;;;;20.65;3.38;;;;;;;;;;5063798;28;20055;-58
2021/11/08 09:29:36;;;;;;;10.48;2.83;;;;;;;;;;5060280;28;20114;-59
2021/11/08 09:32:03;;;;;;;11.18;2.78;;;;;;;;;;5062304;28;20037;-58
2021/11/08 09:34:33;;;;;;;12.75;2.35;;;;;;;;;;5059025;28;20048;-58
2021/11/08 09:37:03;;;;;;;67.18;3.65;;;;;;;;;;5063448;28;20132;-58
2021/11/08 09:39:33;;;;;;;14.38;2.20;;;;;;;;;;5059478;28;20033;-59
2021/11/08 09:42:02;;;;;;;9.85;2.20;;;;;;;;;;5063521;28;20040;-59
2021/11/08 09:44:29;;;;;;;13.75;2.22;;;;;;;;;;5060588;28;20147;-59
2021/11/08 09:46:57;;;;;;;17.60;2.03;;;;;;;;;;5066629;28;20052;-60
2021/11/08 09:49:24;;;;;;;9.65;2.35;;;;;;;;;;5059291;28;20029;-58
2021/11/08 09:51:51;;;;;;;20.45;2.35;;;;;;;;;;5062717;28;20145;-58
2021/11/08 09:54:20;;;;;;;12.27;2.45;;;;;;;;;;5056018;28;20033;-58
2021/11/08 09:56:46;;;;;;;;;;;;;;;;;;5043395;28;20029;-58
2021/11/08 09:59:14;;;;;;;11.57;2.15;;;;;;;;;;5041007;28;19932;-58
2021/11/08 10:01:42;;;;;;;12.32;2.10;;;;;;;;;;5061485;28;20056;-58
2021/11/08 10:04:10;;;;;;;10.00;1.73;;;;;;;;;;5058019;28;20029;-58
2021/11/08 10:06:37;;;;;;;17.63;1.92;;;;;;;;;;5062621;28;20056;-58
2021/11/08 10:09:04;;;;;;;11.88;1.75;;;;;;;;;;5062570;28;20081;-58
2021/11/08 10:11:35;;;;;;;16.30;2.03;;;;;;;;;;5056741;28;20029;-59
2021/11/08 10:14:02;;;;;;;13.55;2.65;;;;;;;;;;5061885;28;20052;-58
2021/11/08 10:16:29;;;;;;;10.98;2.53;;;;;;;;;;5059173;28;20168;-58
2021/11/08 10:18:58;;;;;;;28.52;2.28;;;;;;;;;;5061532;28;20045;-57
2021/11/08 10:21:27;;;;;;;7.93;1.60;;;;;;;;;;5058161;28;20036;-58
2021/11/08 10:23:55;;;;;;;15.10;2.25;;;;;;;;;;5061496;28;20102;-59
2021/11/08 10:26:22;;;;;;;16.80;1.73;;;;;;;;;;5057939;28;20114;-58
2021/11/08 10:28:52;;;;;;;9.82;1.60;;;;;;;;;;5061756;28;20118;-59
2021/11/08 10:31:22;;;;;;;9.05;1.67;;;;;;;;;;5066390;28;20048;-58
2021/11/08 10:33:49;;;;;;;10.63;2.10;;;;;;;;;;5061737;28;20111;-58
2021/11/08 10:36:16;;;;;;;13.63;1.73;;;;;;;;;;5057014;28;20040;-59
2021/11/08 10:38:43;;;;;;;12.18;2.03;;;;;;;;;;5061836;28;20041;-58
2021/11/08 10:41:11;;;;;;;14.93;2.08;;;;;;;;;;5061030;28;20475;-58
2021/11/08 10:43:39;;;;;;;9.07;2.15;;;;;;;;;;5061742;28;20055;-58
2021/11/08 10:46:08;;;;;;;14.68;2.20;;;;;;;;;;5059885;28;20084;-58
2021/11/08 10:48:36;;;;;;;8.32;2.15;;;;;;;;;;5062301;28;20037;-58
2021/11/08 10:51:04;;;;;;;12.73;3.40;;;;;;;;;;5058446;28;20474;-58
2021/11/08 10:53:32;;;;;;;21.20;2.83;;;;;;;;;;5061194;28;20037;-58
2021/11/08 10:56:06;;;;;;;21.23;2.60;;;;;;;;;;5057681;28;20033;-59
2021/11/08 10:58:35;;;;;;;12.73;2.97;;;;;;;;;;5060247;28;20411;-58
2021/11/08 11:01:02;;;;;;;16.45;2.92;;;;;;;;;;5060411;28;20037;-59
2021/11/08 11:03:31;;;;;;;11.70;2.10;;;;;;;;;;5072899;28;20133;-60
2021/11/08 11:05:59;;;;;;;57.78;3.38;;;;;;;;;;5064106;28;20076;-58
2021/11/08 11:08:26;;;;;;;15.50;2.53;;;;;;;;;;5062754;28;20180;-59
2021/11/08 11:10:54;;;;;;;18.63;2.60;;;;;;;;;;5065467;28;20109;-59
2021/11/08 11:13:22;;;;;;;33.50;3.30;;;;;;;;;;5070804;28;20048;-59
2021/11/08 11:15:49;;;;;;;19.65;2.70;;;;;;;;;;5067230;28;20040;-59
2021/11/08 11:18:16;;;;;;;12.50;2.70;;;;;;;;;;5061404;28;20036;-59
2021/11/08 11:20:46;;;;;;;15.23;2.60;;;;;;;;;;5083169;28;20069;-59
2021/11/08 11:23:15;;;;;;;23.67;2.75;;;;;;;;;;5057924;28;20089;-59
2021/11/08 11:25:43;;;;;;;13.15;2.40;;;;;;;;;;5043862;28;20052;-59
2021/11/08 11:28:10;;;;;;;18.38;3.05;;;;;;;;;;5067534;28;20048;-59
2021/11/08 11:30:38;;;;;;;10.10;2.40;;;;;;;;;;5082079;28;20032;-58
2021/11/08 11:33:06;;;;;;;12.52;2.15;;;;;;;;;;5061886;28;20036;-58
2021/11/08 11:35:34;;;;;;;14.80;2.20;;;;;;;;;;5063398;28;20044;-59
2021/11/08 11:38:03;;;;;;;14.38;2.38;;;;;;;;;;5060123;28;20283;-59
2021/11/08 11:40:30;;;;;;;19.33;2.60;;;;;;;;;;5064337;28;20048;-59
2021/11/08 11:42:59;;;;;;;30.23;2.78;;;;;;;;;;5059953;28;20117;-59
2021/11/08 11:45:26;;;;;;;18.55;2.88;;;;;;;;;;5063835;28;20029;-58
2021/11/08 11:48:00;;;;;;;17.45;2.90;;;;;;;;;;5081402;28;20051;-58
2021/11/08 11:50:26;;;;;;;27.10;3.00;;;;;;;;;;5078905;28;20044;-58
2021/11/08 11:52:53;;;;;;;13.25;2.50;;;;;;;;;;5063634;28;20044;-58
2021/11/08 11:55:21;;;;;;;19.67;2.28;;;;;;;;;;5056331;28;20041;-58
2021/11/08 11:57:48;;;;;;;14.07;2.55;;;;;;;;;;5044185;28;20044;-58
2021/11/08 12:00:15;;;;;;;19.55;2.22;;;;;;;;;;5056214;28;20052;-58
2021/11/08 12:02:42;;;;;;;21.95;2.58;;;;;;;;;;5060318;28;20115;-59
2021/11/08 12:05:09;;;;;;;10.68;2.00;;;;;;;;;;5054994;28;20045;-59
2021/11/08 12:07:35;;;;;;;17.70;2.30;;;;;;;;;;5041065;28;20136;-59
2021/11/08 12:10:03;;;;;;;12.48;2.08;;;;;;;;;;5048718;28;20158;-59
2021/11/08 12:12:34;;;;;;;15.48;2.35;;;;;;;;;;5057359;28;20037;-59
2021/11/08 12:15:06;;;;;;;9.40;2.03;;;;;;;;;;5049259;28;20044;-59
2021/11/08 12:17:35;;;;;;;16.52;2.10;;;;;;;;;;5060031;28;20044;-58
2021/11/08 12:20:03;;;;;;;18.23;2.70;;;;;;;;;;5056310;28;20045;-59
2021/11/08 12:22:32;;;;;;;13.95;2.10;;;;;;;;;;5059599;28;20047;-60
2021/11/08 12:25:00;;;;;;;19.38;1.83;;;;;;;;;;5056403;28;20045;-60
2021/11/08 12:27:35;;;;;;;17.90;2.08;;;;;;;;;;5060080;28;20060;-59
2021/11/08 12:30:02;;;;;;;18.60;2.05;;;;;;;;;;5057127;28;20130;-60
2021/11/08 12:32:29;;;;;;;13.48;2.10;;;;;;;;;;5060336;28;20037;-59
2021/11/08 12:34:58;;;;;;;13.50;2.17;;;;;;;;;;5057410;28;20041;-59
2021/11/08 12:37:34;;;;;;;10.73;1.77;;;;;;;;;;5060144;28;20045;-59
2021/11/08 12:40:02;;;;;;;17.35;1.92;;;;;;;;;;5058990;28;20037;-59
2021/11/08 12:42:38;;;;;;;19.48;2.22;;;;;;;;;;5060163;28;20025;-59
2021/11/08 12:45:08;;;;;;;22.58;3.00;;;;;;;;;;5059050;28;20040;-58
2021/11/08 12:47:35;;;;;;;20.25;2.45;;;;;;;;;;5055568;28;20041;-59
2021/11/08 12:50:01;;;;;;;13.75;2.10;;;;;;;;;;5060253;28;20041;-59
2021/11/08 12:52:31;;;;;;;22.48;2.13;;;;;;;;;;5056342;28;20036;-59
2021/11/08 12:55:04;;;;;;;13.43;2.50;;;;;;;;;;5059977;28;20033;-59
2021/11/08 12:57:33;;;;;;;15.23;2.47;;;;;;;;;;5054391;28;20051;-59
2021/11/08 13:00:02;;;;;;;13.15;1.67;;;;;;;;;;5040967;28;20052;-58
2021/11/08 13:02:31;;;;;;;15.25;1.67;;;;;;;;;;5053667;28;20048;-59
2021/11/08 13:04:58;;;;;;;19.23;2.03;;;;;;;;;;5062266;28;20050;-59
2021/11/08 13:07:28;;;;;;;22.23;2.28;;;;;;;;;;5056069;28;20049;-59
2021/11/08 13:09:55;;;;;;;22.23;2.38;;;;;;;;;;5035832;28;20090;-60
2021/11/08 13:12:30;;;;;;;19.77;2.22;;;;;;;;;;5046481;28;20045;-60
2021/11/08 13:15:18;;;;;;;19.90;2.40;;;;;;;;;;5060160;28;20045;-59
2021/11/08 13:17:45;;;;;;;;;;;;;;;;;;5058386;28;20041;-59
2021/11/08 13:20:13;;;;;;;14.82;2.80;;;;;;;;;;5061656;28;19932;-59
2021/11/08 13:22:41;;;;;;;14.65;3.33;;;;;;;;;;5056715;28;20053;-60
2021/11/08 13:25:09;;;;;;;22.58;3.05;;;;;;;;;;5042791;28;20042;-59
2021/11/08 13:27:36;;;;;;;15.15;2.40;;;;;;;;;;5044566;28;20053;-60
2021/11/08 13:30:06;;;;;;;13.10;1.88;;;;;;;;;;5062084;28;20052;-59
2021/11/08 13:32:33;;;;;;;10.13;1.92;;;;;;;;;;5059184;28;20048;-60
2021/11/08 13:35:07;;;;;;;21.63;2.63;;;;;;;;;;5063352;28;20036;-60
2021/11/08 13:37:36;;;;;;;13.90;2.30;;;;;;;;;;5060200;28;20048;-59
2021/11/08 13:40:12;;;;;;;17.58;2.10;;;;;;;;;;5064273;28;20044;-59
2021/11/08 13:42:40;;;;;;;15.10;2.75;;;;;;;;;;5059314;28;20048;-60
2021/11/08 13:45:07;;;;;;;17.10;2.20;;;;;;;;;;5061845;28;20029;-60
2021/11/08 13:47:37;;;;;;;18.10;2.42;;;;;;;;;;5060097;28;20087;-59
2021/11/08 13:50:09;;;;;;;14.52;1.98;;;;;;;;;;5049692;28;20110;-60
2021/11/08 13:52:37;;;;;;;18.52;2.30;;;;;;;;;;5046469;28;20045;-59
2021/11/08 13:55:07;;;;;;;14.77;2.00;;;;;;;;;;5058693;28;20576;-60
2021/11/08 13:57:33;;;;;;;13.15;1.65;;;;;;;;;;5063101;28;20025;-60
2021/11/08 13:59:59;;;;;;;17.00;2.42;;;;;;;;;;5059382;28;20482;-60
2021/11/08 14:02:26;;;;;;;24.38;2.17;;;;;;;;;;5061121;28;20048;-60
2021/11/08 14:04:54;;;;;;;15.13;2.05;;;;;;;;;;5060483;28;20052;-60
2021/11/08 14:07:21;;;;;;;6.47;1.53;;;;;;;;;;5064463;28;20033;-60
2021/11/08 14:09:49;;;;;;;20.10;2.35;;;;;;;;;;5062092;28;20029;-60
2021/11/08 14:12:17;;;;;;;12.80;1.57;;;;;;;;;;5062994;28;20061;-59
2021/11/08 14:14:44;;;;;;;16.23;2.30;;;;;;;;;;5057503;28;20304;-60
2021/11/08 14:17:12;;;;;;;12.55;2.03;;;;;;;;;;5062964;28;20037;-60
2021/11/08 14:19:39;;;;;;;;;;;;;;;;;;5058759;28;20036;-60
2021/11/08 14:22:06;;;;;;;22.23;2.30;;;;;;;;;;5060507;28;19925;-59
2021/11/08 14:24:36;;;;;;;15.13;1.95;;;;;;;;;;5060060;28;20159;-60
2021/11/08 14:27:05;;;;;;;14.40;2.28;;;;;;;;;;5061884;28;20079;-60
2021/11/08 14:29:32;;;;;;;15.60;2.28;;;;;;;;;;5058600;28;20055;-60
2021/11/08 14:32:00;;;;;;;13.27;1.85;;;;;;;;;;5061409;28;20052;-60
2021/11/08 14:34:30;;;;;;;14.13;1.80;;;;;;;;;;5060281;28;20025;-60
2021/11/08 14:36:58;;;;;;;12.68;1.88;;;;;;;;;;5060062;28;20125;-59
2021/11/08 14:39:26;;;;;;;7.40;1.70;;;;;;;;;;5061334;28;20067;-60
2021/11/08 14:41:54;;;;;;;;;;;;;;;;;;5058918;28;20061;-59
2021/11/08 14:44:26;;;;;;;6.68;1.65;;;;;;;;;;5060683;28;19916;-60
2021/11/08 14:46:55;;;;;;;12.48;1.70;;;;;;;;;;5060375;28;20048;-59
2021/11/08 14:49:22;;;;;;;16.85;1.88;;;;;;;;;;5061951;28;20032;-60
2021/11/08 14:51:50;;;;;;;8.75;1.95;;;;;;;;;;5056800;28;20068;-60
2021/11/08 14:54:17;;;;;;;23.13;2.00;;;;;;;;;;5061381;28;20051;-61
2021/11/08 14:56:44;;;;;;;13.02;1.80;;;;;;;;;;5053226;28;20059;-59
2021/11/08 14:59:11;;;;;;;13.27;2.15;;;;;;;;;;5042054;28;20038;-60
2021/11/08 15:01:40;;;;;;;26.02;1.98;;;;;;;;;;5041640;28;20047;-59
2021/11/08 15:04:07;;;;;;;13.48;2.13;;;;;;;;;;5061944;28;20032;-60
2021/11/08 15:06:37;;;;;;;9.40;1.70;;;;;;;;;;5039200;28;20033;-60
2021/11/08 15:09:04;;;;;;;14.88;1.85;;;;;;;;;;5057611;28;20045;-59
2021/11/08 15:11:32;;;;;;;7.50;1.58;;;;;;;;;;5057507;28;20126;-60
2021/11/08 15:14:02;;;;;;;8.48;1.77;;;;;;;;;;5061313;28;20081;-60
2021/11/08 15:16:28;;;;;;;15.75;2.08;;;;;;;;;;5051651;28;20036;-60
2021/11/08 15:19:05;;;;;;;15.43;1.77;;;;;;;;;;5061619;28;20036;-60
2021/11/08 15:21:35;;;;;;;43.15;2.92;;;;;;;;;;5055836;28;20110;-60
2021/11/08 15:24:06;;;;;;;118.93;6.97;;;;;;;;;;5059158;28;20084;-60
2021/11/08 15:26:33;;;;;;;13.75;1.67;;;;;;;;;;5037894;28;20114;-60
2021/11/08 15:29:01;;;;;;;13.00;2.00;;;;;;;;;;5060641;28;20495;-60
2021/11/08 15:31:29;;;;;;;8.73;1.55;;;;;;;;;;5055497;28;20040;-60
2021/11/08 15:34:03;;;;;;;10.80;1.83;;;;;;;;;;5055309;28;20051;-60
2021/11/08 15:36:32;;;;;;;13.10;2.22;;;;;;;;;;5061210;28;20037;-60
2021/11/08 15:39:02;;;;;;;14.07;3.65;;;;;;;;;;5060873;28;20072;-63
2021/11/08 15:41:29;;;;;;;15.25;2.92;;;;;;;;;;5063046;28;20044;-60
2021/11/08 15:43:56;;;;;;;16.13;2.47;;;;;;;;;;5055999;28;20048;-61
2021/11/08 15:46:23;;;;;;;10.23;1.95;;;;;;;;;;5061328;28;20044;-60
2021/11/08 15:48:50;;;;;;;8.27;1.60;;;;;;;;;;5056785;28;20047;-60
2021/11/08 15:51:18;;;;;;;17.67;1.75;;;;;;;;;;5060690;28;20048;-61
2021/11/08 15:53:46;;;;;;;17.02;2.10;;;;;;;;;;5057284;28;20055;-60
2021/11/08 15:56:13;;;;;;;8.77;1.93;;;;;;;;;;5060825;28;20051;-60
2021/11/08 15:58:41;;;;;;;15.13;1.50;;;;;;;;;;5057656;28;20122;-60
2021/11/08 16:01:08;;;;;;;;;;;;;;;;;;5061824;28;20045;-60
2021/11/08 16:03:36;;;;;;;13.02;1.80;;;;;;;;;;5051968;28;19921;-60